TWB708 RKPC-RKSS
Flight info
| Callsign | TWB708 |
|---|---|
| Flight time | 0h 46m |
| Altitude | 25000 |
| Route | KAMIT1W KAMIT Y722 OLMEN OLMEN2T |
| Aircraft | B77W/H-SDE1E2E3FGHIJ2J3J4J5M1RWXY/LB1D1 |
Departure
| Time | 2025-09-07 02:07 |
|---|---|
| Airport | Jeju International Airport (RKPC) |
Arrival
| Time | 2025-09-07 02:53 |
|---|---|
| Airport | Gimpo International Airport (RKSS) |
| Time | Latitude | Longitude | Altitude | Speed | Heading |
|---|---|---|---|---|---|
| 2025-09-07 01:37 | 33.50784 | 126.49234 | 97 ft | 0 kts | 173° |
| 2025-09-07 01:49 | 33.50793 | 126.49232 | 98 ft | 0 kts | 153° |
| 2025-09-07 01:51 | 33.50811 | 126.49216 | 97 ft | 2 kts | 116° |
| 2025-09-07 01:51 | 33.50816 | 126.49197 | 95 ft | 2 kts | 89° |
| 2025-09-07 01:52 | 33.50810 | 126.49168 | 97 ft | 0 kts | 62° |
| 2025-09-07 01:53 | 33.50818 | 126.49182 | 97 ft | 0 kts | 58° |
| 2025-09-07 01:58 | 33.50840 | 126.49224 | 100 ft | 0 kts | 58° |
| 2025-09-07 02:01 | 33.50844 | 126.49232 | 100 ft | 5 kts | 58° |
| 2025-09-07 02:01 | 33.50920 | 126.49380 | 100 ft | 12 kts | 58° |
| 2025-09-07 02:02 | 33.51016 | 126.49563 | 96 ft | 16 kts | 51° |
| 2025-09-07 02:02 | 33.51111 | 126.49631 | 98 ft | 16 kts | 21° |
| 2025-09-07 02:02 | 33.51298 | 126.49766 | 99 ft | 16 kts | 54° |
| 2025-09-07 02:03 | 33.51418 | 126.49615 | 98 ft | 0 kts | 238° |
| 2025-09-07 02:05 | 33.51417 | 126.49613 | 98 ft | 1 kts | 238° |
| 2025-09-07 02:05 | 33.51240 | 126.49269 | 97 ft | 64 kts | 238° |
| 2025-09-07 02:06 | 33.50248 | 126.47353 | 410 ft | 177 kts | 238° |
| 2025-09-07 02:06 | 33.49595 | 126.46069 | 1230 ft | 184 kts | 240° |
| 2025-09-07 02:06 | 33.48336 | 126.43603 | 2946 ft | 183 kts | 240° |
| 2025-09-07 02:07 | 33.49637 | 126.39378 | 3983 ft | 266 kts | 327° |
| 2025-09-07 02:08 | 33.53349 | 126.39176 | 5807 ft | 289 kts | 17° |
| 2025-09-07 02:08 | 33.57070 | 126.41180 | 7666 ft | 296 kts | 23° |
| 2025-09-07 02:09 | 33.61461 | 126.43672 | 9781 ft | 303 kts | 21° |
| 2025-09-07 02:09 | 33.62767 | 126.44389 | 10311 ft | 308 kts | 21° |
| 2025-09-07 02:09 | 33.66952 | 126.46627 | 10970 ft | 359 kts | 21° |
| 2025-09-07 02:10 | 33.71813 | 126.49178 | 11983 ft | 395 kts | 21° |
| 2025-09-07 02:10 | 33.76953 | 126.51862 | 13797 ft | 408 kts | 21° |
| 2025-09-07 02:11 | 33.84876 | 126.55988 | 16408 ft | 420 kts | 21° |
| 2025-09-07 02:12 | 33.90314 | 126.58821 | 18038 ft | 430 kts | 21° |
| 2025-09-07 02:12 | 33.95877 | 126.61722 | 19424 ft | 440 kts | 21° |
| 2025-09-07 02:12 | 33.98703 | 126.63198 | 20125 ft | 444 kts | 21° |
| 2025-09-07 02:13 | 34.04386 | 126.66170 | 21533 ft | 451 kts | 21° |
| 2025-09-07 02:13 | 34.10174 | 126.69203 | 23149 ft | 453 kts | 21° |
| 2025-09-07 02:14 | 34.15943 | 126.72230 | 24625 ft | 449 kts | 21° |
| 2025-09-07 02:14 | 34.21635 | 126.75261 | 24875 ft | 449 kts | 21° |
| 2025-09-07 02:15 | 34.27547 | 126.77424 | 24879 ft | 441 kts | 7° |
| 2025-09-07 02:16 | 34.36657 | 126.78439 | 24884 ft | 439 kts | 2° |
| 2025-09-07 02:16 | 34.39709 | 126.78737 | 24881 ft | 440 kts | 2° |
| 2025-09-07 02:16 | 34.45812 | 126.79359 | 24880 ft | 440 kts | 2° |
| 2025-09-07 02:17 | 34.51897 | 126.80000 | 24882 ft | 440 kts | 2° |
| 2025-09-07 02:17 | 34.58009 | 126.80649 | 24878 ft | 441 kts | 2° |
| 2025-09-07 02:18 | 34.64095 | 126.81298 | 24880 ft | 440 kts | 2° |
| 2025-09-07 02:18 | 34.70199 | 126.81948 | 24881 ft | 440 kts | 2° |
| 2025-09-07 02:19 | 34.79354 | 126.82924 | 24883 ft | 440 kts | 2° |
| 2025-09-07 02:20 | 34.85454 | 126.83576 | 24884 ft | 440 kts | 2° |
| 2025-09-07 02:20 | 34.88514 | 126.83904 | 24881 ft | 440 kts | 2° |
| 2025-09-07 02:20 | 34.94570 | 126.84552 | 24887 ft | 440 kts | 2° |
| 2025-09-07 02:21 | 35.00672 | 126.85207 | 24887 ft | 440 kts | 1° |
| 2025-09-07 02:21 | 35.06771 | 126.85862 | 24883 ft | 440 kts | 1° |
| 2025-09-07 02:22 | 35.12893 | 126.86520 | 24897 ft | 441 kts | 1° |
| 2025-09-07 02:22 | 35.18991 | 126.87181 | 24890 ft | 442 kts | 1° |
| 2025-09-07 02:23 | 35.25123 | 126.87849 | 24889 ft | 442 kts | 1° |
| 2025-09-07 02:23 | 35.31258 | 126.88518 | 24891 ft | 443 kts | 1° |
| 2025-09-07 02:24 | 35.37398 | 126.89187 | 24887 ft | 443 kts | 1° |
| 2025-09-07 02:24 | 35.43563 | 126.89862 | 24880 ft | 444 kts | 1° |
| 2025-09-07 02:25 | 35.49718 | 126.90536 | 24887 ft | 444 kts | 1° |
| 2025-09-07 02:26 | 35.58916 | 126.91541 | 24883 ft | 444 kts | 1° |
| 2025-09-07 02:26 | 35.65076 | 126.92215 | 24883 ft | 444 kts | 1° |
| 2025-09-07 02:26 | 35.68160 | 126.92553 | 24868 ft | 444 kts | 1° |
| 2025-09-07 02:27 | 35.77354 | 126.93563 | 24876 ft | 444 kts | 1° |
| 2025-09-07 02:28 | 35.83519 | 126.94241 | 24875 ft | 444 kts | 1° |
| 2025-09-07 02:28 | 35.89690 | 126.94920 | 24879 ft | 447 kts | 0° |
| 2025-09-07 02:29 | 35.95900 | 126.95609 | 24888 ft | 450 kts | 1° |
| 2025-09-07 02:29 | 36.02115 | 126.96305 | 24864 ft | 443 kts | 0° |
| 2025-09-07 02:30 | 36.08262 | 126.96994 | 24904 ft | 445 kts | 0° |
| 2025-09-07 02:30 | 36.11330 | 126.97335 | 24886 ft | 451 kts | 0° |
| 2025-09-07 02:30 | 36.17595 | 126.98038 | 24854 ft | 447 kts | 0° |
| 2025-09-07 02:31 | 36.26847 | 126.99076 | 24867 ft | 446 kts | 0° |
| 2025-09-07 02:31 | 36.29945 | 126.99424 | 24873 ft | 447 kts | 0° |
| 2025-09-07 02:32 | 36.39225 | 127.00412 | 24576 ft | 447 kts | 357° |
| 2025-09-07 02:33 | 36.45500 | 127.00213 | 23181 ft | 450 kts | 353° |
| 2025-09-07 02:33 | 36.51733 | 126.99902 | 22011 ft | 443 kts | 353° |
| 2025-09-07 02:34 | 36.57784 | 126.99673 | 20959 ft | 435 kts | 353° |
| 2025-09-07 02:34 | 36.63786 | 126.99460 | 19919 ft | 428 kts | 353° |
| 2025-09-07 02:35 | 36.69731 | 126.99246 | 18856 ft | 423 kts | 354° |
| 2025-09-07 02:35 | 36.75341 | 127.01005 | 17799 ft | 431 kts | 29° |
| 2025-09-07 02:36 | 36.79785 | 127.05905 | 16781 ft | 423 kts | 41° |
| 2025-09-07 02:36 | 36.84041 | 127.10922 | 15778 ft | 417 kts | 40° |
| 2025-09-07 02:36 | 36.86162 | 127.13385 | 15278 ft | 414 kts | 40° |
| 2025-09-07 02:37 | 36.92424 | 127.20599 | 13823 ft | 405 kts | 40° |
| 2025-09-07 02:37 | 36.94496 | 127.22985 | 13265 ft | 403 kts | 40° |
| 2025-09-07 02:38 | 37.00513 | 127.29953 | 12432 ft | 378 kts | 40° |
| 2025-09-07 02:38 | 37.02418 | 127.32167 | 12203 ft | 371 kts | 40° |
| 2025-09-07 02:39 | 37.08035 | 127.38696 | 11552 ft | 361 kts | 40° |
| 2025-09-07 02:40 | 37.11624 | 127.42824 | 11093 ft | 339 kts | 34° |
| 2025-09-07 02:40 | 37.15828 | 127.44482 | 10707 ft | 308 kts | 356° |
| 2025-09-07 02:41 | 37.19913 | 127.43922 | 10183 ft | 286 kts | 325° |
| 2025-09-07 02:41 | 37.22064 | 127.40150 | 9823 ft | 264 kts | 287° |
| 2025-09-07 02:42 | 37.22803 | 127.35688 | 9452 ft | 260 kts | 278° |
| 2025-09-07 02:42 | 37.23081 | 127.33462 | 9295 ft | 260 kts | 279° |
| 2025-09-07 02:42 | 37.23660 | 127.28950 | 8943 ft | 265 kts | 278° |
| 2025-09-07 02:43 | 37.24586 | 127.22074 | 8364 ft | 262 kts | 279° |
| 2025-09-07 02:44 | 37.25241 | 127.17738 | 8016 ft | 249 kts | 290° |
| 2025-09-07 02:44 | 37.27558 | 127.14298 | 7397 ft | 270 kts | 316° |
| 2025-09-07 02:45 | 37.30356 | 127.11153 | 6607 ft | 259 kts | 315° |
| 2025-09-07 02:45 | 37.32844 | 127.08144 | 5877 ft | 245 kts | 313° |
| 2025-09-07 02:45 | 37.34068 | 127.06611 | 5517 ft | 251 kts | 313° |
| 2025-09-07 02:46 | 37.36577 | 127.03513 | 4875 ft | 250 kts | 314° |
| 2025-09-07 02:46 | 37.38964 | 127.00547 | 4274 ft | 227 kts | 314° |
| 2025-09-07 02:47 | 37.42003 | 126.96741 | 3502 ft | 185 kts | 314° |
| 2025-09-07 02:48 | 37.43667 | 126.94653 | 3052 ft | 150 kts | 313° |
| 2025-09-07 02:48 | 37.45072 | 126.92888 | 2715 ft | 155 kts | 313° |
| 2025-09-07 02:49 | 37.46511 | 126.91084 | 2305 ft | 145 kts | 314° |
| 2025-09-07 02:49 | 37.47226 | 126.90187 | 2108 ft | 146 kts | 314° |
| 2025-09-07 02:49 | 37.48643 | 126.88408 | 1717 ft | 143 kts | 314° |
| 2025-09-07 02:50 | 37.50061 | 126.86627 | 1365 ft | 153 kts | 314° |
| 2025-09-07 02:50 | 37.51480 | 126.84844 | 955 ft | 136 kts | 314° |
| 2025-09-07 02:51 | 37.53490 | 126.82325 | 549 ft | 143 kts | 315° |
| 2025-09-07 02:52 | 37.54880 | 126.80579 | 93 ft | 134 kts | 316° |
| 2025-09-07 02:52 | 37.55473 | 126.79836 | 61 ft | 103 kts | 315° |
| 2025-09-07 02:53 | 37.56273 | 126.78981 | 62 ft | 22 kts | 356° |
| 2025-09-07 02:53 | 37.56316 | 126.79038 | 64 ft | 8 kts | 97° |
| 2025-09-07 02:53 | 37.56182 | 126.79240 | 65 ft | 18 kts | 135° |
| 2025-09-07 02:54 | 37.56005 | 126.79459 | 61 ft | 18 kts | 136° |
| 2025-09-07 02:54 | 37.55920 | 126.79746 | 64 ft | 18 kts | 100° |
| 2025-09-07 02:55 | 37.55854 | 126.80110 | 62 ft | 9 kts | 52° |
| 2025-09-07 02:56 | 37.55882 | 126.80149 | 63 ft | 0 kts | 44° |